Cherry Brook, Massachusetts
Current Conditions -  °F | °C
As of 9:56 PM on Friday 21 Nov 2014 (Local Time) from KBED Reporting Station
Clear Clear  
Wind Chill: 17°   Ceiling: Unl
Heat Index: 25°   Visibility: 10mi
Dew Point:   Wind: 7mph
Humidity: 43%   Direction: 270°W
Pressure: 30.39"   Gusts: 17mph
Location:  42.359°N, 71.3°W
Report Text: KBED 220256Z 27006G15KT 10SM CLR M04/M15 A3039 RMK AO2 SLP307 T10391150 53016
Loading
Personal Weather Stations






























Interactive Weather Map New forecast layout! Learn more

10-Day Weather Forecast

Advertisements
Track Severe Weather on mobile